sensor_id;sensor_type;location;lat;lon;timestamp;pressure;altitude;pressure_sealevel;temperature;humidity
61488;BME280;47351;53.326;-6.298;2023-07-28T00:00:41;100000.21;;;16.61;77.32
61488;BME280;47351;53.326;-6.298;2023-07-28T00:03:32;100008.33;;;16.52;77.54
61488;BME280;47351;53.326;-6.298;2023-07-28T00:06:22;100009.23;;;16.44;77.73
61488;BME280;47351;53.326;-6.298;2023-07-28T00:09:13;100003.80;;;16.38;77.90
61488;BME280;47351;53.326;-6.298;2023-07-28T00:12:04;99998.92;;;16.31;78.08
61488;BME280;47351;53.326;-6.298;2023-07-28T00:14:55;99992.34;;;16.25;78.20
61488;BME280;47351;53.326;-6.298;2023-07-28T00:17:45;99989.66;;;16.20;78.34
61488;BME280;47351;53.326;-6.298;2023-07-28T00:20:36;99990.33;;;16.18;78.37
61488;BME280;47351;53.326;-6.298;2023-07-28T00:23:27;99996.36;;;16.15;78.15
61488;BME280;47351;53.326;-6.298;2023-07-28T00:26:18;100003.06;;;16.11;78.20
61488;BME280;47351;53.326;-6.298;2023-07-28T00:29:08;100002.55;;;16.07;78.24
61488;BME280;47351;53.326;-6.298;2023-07-28T00:31:59;99999.59;;;16.01;78.36
61488;BME280;47351;53.326;-6.298;2023-07-28T00:34:49;99996.58;;;15.94;78.32
61488;BME280;47351;53.326;-6.298;2023-07-28T00:37:40;99989.52;;;15.88;78.42
61488;BME280;47351;53.326;-6.298;2023-07-28T00:43:21;99991.27;;;15.79;78.43
61488;BME280;47351;53.326;-6.298;2023-07-28T00:46:12;99991.73;;;15.77;78.53
61488;BME280;47351;53.326;-6.298;2023-07-28T00:49:03;100008.64;;;15.74;78.54
61488;BME280;47351;53.326;-6.298;2023-07-28T00:51:54;100016.33;;;15.72;78.53
61488;BME280;47351;53.326;-6.298;2023-07-28T00:54:44;100002.59;;;15.70;78.46
61488;BME280;47351;53.326;-6.298;2023-07-28T00:57:35;99981.91;;;15.68;78.60
61488;BME280;47351;53.326;-6.298;2023-07-28T01:00:25;99984.01;;;15.65;78.70
61488;BME280;47351;53.326;-6.298;2023-07-28T01:03:17;99993.83;;;15.61;78.69
61488;BME280;47351;53.326;-6.298;2023-07-28T01:06:13;99998.95;;;15.58;78.81
61488;BME280;47351;53.326;-6.298;2023-07-28T01:09:05;99988.45;;;15.55;79.01
61488;BME280;47351;53.326;-6.298;2023-07-28T01:11:57;99979.23;;;15.54;79.11
61488;BME280;47351;53.326;-6.298;2023-07-28T01:14:49;99978.37;;;15.50;79.07
61488;BME280;47351;53.326;-6.298;2023-07-28T01:17:39;99976.91;;;15.49;79.16
61488;BME280;47351;53.326;-6.298;2023-07-28T01:20:31;99976.66;;;15.47;79.14
61488;BME280;47351;53.326;-6.298;2023-07-28T01:23:24;99970.41;;;15.44;79.22
61488;BME280;47351;53.326;-6.298;2023-07-28T01:29:14;99981.40;;;15.39;79.53
61488;BME280;47351;53.326;-6.298;2023-07-28T01:32:06;99982.22;;;15.37;79.55
61488;BME280;47351;53.326;-6.298;2023-07-28T01:34:57;99978.70;;;15.36;79.77
61488;BME280;47351;53.326;-6.298;2023-07-28T01:37:47;99990.27;;;15.36;79.82
61488;BME280;47351;53.326;-6.298;2023-07-28T01:40:39;99994.42;;;15.36;80.09
61488;BME280;47351;53.326;-6.298;2023-07-28T01:43:30;99989.73;;;15.37;80.42
61488;BME280;47351;53.326;-6.298;2023-07-28T01:46:21;99992.27;;;15.39;80.54
61488;BME280;47351;53.326;-6.298;2023-07-28T01:49:11;99991.23;;;15.39;80.65
61488;BME280;47351;53.326;-6.298;2023-07-28T01:52:02;99988.70;;;15.40;80.79
61488;BME280;47351;53.326;-6.298;2023-07-28T01:54:52;99990.61;;;15.40;80.96
61488;BME280;47351;53.326;-6.298;2023-07-28T01:57:49;99996.45;;;15.41;81.04
61488;BME280;47351;53.326;-6.298;2023-07-28T02:00:40;99996.79;;;15.41;81.24
61488;BME280;47351;53.326;-6.298;2023-07-28T02:03:31;100000.40;;;15.41;81.08
61488;BME280;47351;53.326;-6.298;2023-07-28T02:06:21;100000.08;;;15.39;81.12
61488;BME280;47351;53.326;-6.298;2023-07-28T02:09:12;99992.80;;;15.37;81.11
61488;BME280;47351;53.326;-6.298;2023-07-28T02:12:03;99990.86;;;15.33;81.09
61488;BME280;47351;53.326;-6.298;2023-07-28T02:14:53;99993.92;;;15.28;81.15
61488;BME280;47351;53.326;-6.298;2023-07-28T02:17:44;99993.25;;;15.25;81.33
61488;BME280;47351;53.326;-6.298;2023-07-28T02:20:35;99997.90;;;15.23;81.40
61488;BME280;47351;53.326;-6.298;2023-07-28T02:23:26;99999.67;;;15.22;81.65
61488;BME280;47351;53.326;-6.298;2023-07-28T02:26:17;99997.15;;;15.21;81.75
61488;BME280;47351;53.326;-6.298;2023-07-28T02:29:08;99994.20;;;15.21;81.98
61488;BME280;47351;53.326;-6.298;2023-07-28T02:31:58;99989.14;;;15.20;82.04
61488;BME280;47351;53.326;-6.298;2023-07-28T02:34:49;99985.89;;;15.19;82.23
61488;BME280;47351;53.326;-6.298;2023-07-28T02:37:40;99984.98;;;15.16;82.24
61488;BME280;47351;53.326;-6.298;2023-07-28T02:40:33;99981.95;;;15.12;82.26
61488;BME280;47351;53.326;-6.298;2023-07-28T02:43:23;99982.04;;;15.07;82.44
61488;BME280;47351;53.326;-6.298;2023-07-28T02:46:14;99981.86;;;15.02;82.57
61488;BME280;47351;53.326;-6.298;2023-07-28T02:49:05;99979.07;;;14.97;82.64
61488;BME280;47351;53.326;-6.298;2023-07-28T02:51:56;99970.33;;;14.93;82.68
61488;BME280;47351;53.326;-6.298;2023-07-28T02:54:46;99963.48;;;14.91;82.94
61488;BME280;47351;53.326;-6.298;2023-07-28T02:57:37;99960.27;;;14.89;82.94
61488;BME280;47351;53.326;-6.298;2023-07-28T03:00:28;99960.70;;;14.89;83.06
61488;BME280;47351;53.326;-6.298;2023-07-28T03:03:19;99960.45;;;14.89;83.26
61488;BME280;47351;53.326;-6.298;2023-07-28T03:06:10;99964.26;;;14.90;83.42
61488;BME280;47351;53.326;-6.298;2023-07-28T03:09:03;99966.91;;;14.90;83.71
61488;BME280;47351;53.326;-6.298;2023-07-28T03:12:16;99967.00;;;14.91;83.86
61488;BME280;47351;53.326;-6.298;2023-07-28T03:15:08;99964.10;;;14.91;84.05
61488;BME280;47351;53.326;-6.298;2023-07-28T03:17:58;99964.22;;;14.90;84.12
61488;BME280;47351;53.326;-6.298;2023-07-28T03:20:49;99965.66;;;14.90;84.21
61488;BME280;47351;53.326;-6.298;2023-07-28T03:23:40;99963.64;;;14.89;84.13
61488;BME280;47351;53.326;-6.298;2023-07-28T03:26:30;99966.71;;;14.89;84.37
61488;BME280;47351;53.326;-6.298;2023-07-28T03:29:22;99964.25;;;14.90;84.40
61488;BME280;47351;53.326;-6.298;2023-07-28T03:32:13;99960.41;;;14.92;84.38
61488;BME280;47351;53.326;-6.298;2023-07-28T03:35:04;99958.05;;;14.93;84.37
61488;BME280;47351;53.326;-6.298;2023-07-28T03:37:57;99954.06;;;14.96;84.53
61488;BME280;47351;53.326;-6.298;2023-07-28T03:40:48;99953.08;;;14.98;84.41
61488;BME280;47351;53.326;-6.298;2023-07-28T03:43:39;99952.33;;;15.00;84.49
61488;BME280;47351;53.326;-6.298;2023-07-28T03:46:30;99950.42;;;15.02;84.41
61488;BME280;47351;53.326;-6.298;2023-07-28T03:49:20;99955.48;;;15.02;84.45
61488;BME280;47351;53.326;-6.298;2023-07-28T03:52:11;99956.77;;;15.03;84.22
61488;BME280;47351;53.326;-6.298;2023-07-28T03:55:02;99949.89;;;15.03;84.01
61488;BME280;47351;53.326;-6.298;2023-07-28T03:57:52;99952.50;;;15.02;83.96
61488;BME280;47351;53.326;-6.298;2023-07-28T04:00:43;99952.09;;;15.02;83.94
61488;BME280;47351;53.326;-6.298;2023-07-28T04:03:33;99951.21;;;15.01;83.93
61488;BME280;47351;53.326;-6.298;2023-07-28T04:09:28;99959.09;;;14.99;83.88
61488;BME280;47351;53.326;-6.298;2023-07-28T04:12:19;99958.92;;;14.99;83.92
61488;BME280;47351;53.326;-6.298;2023-07-28T04:15:10;99958.42;;;15.00;84.09
61488;BME280;47351;53.326;-6.298;2023-07-28T04:18:00;99959.52;;;15.01;83.98
61488;BME280;47351;53.326;-6.298;2023-07-28T04:20:51;99963.70;;;15.04;83.98
61488;BME280;47351;53.326;-6.298;2023-07-28T04:23:42;99964.83;;;15.10;84.10
61488;BME280;47351;53.326;-6.298;2023-07-28T04:26:32;99965.16;;;15.15;83.81
61488;BME280;47351;53.326;-6.298;2023-07-28T04:29:24;99959.48;;;15.20;83.66
61488;BME280;47351;53.326;-6.298;2023-07-28T04:32:16;99964.09;;;15.26;83.69
61488;BME280;47351;53.326;-6.298;2023-07-28T04:35:07;99966.16;;;15.30;83.39
61488;BME280;47351;53.326;-6.298;2023-07-28T04:38:13;99968.53;;;15.36;83.28
61488;BME280;47351;53.326;-6.298;2023-07-28T04:41:12;99967.30;;;15.40;83.14
61488;BME280;47351;53.326;-6.298;2023-07-28T04:44:14;99971.14;;;15.43;82.99
61488;BME280;47351;53.326;-6.298;2023-07-28T04:47:04;99970.64;;;15.44;82.67
61488;BME280;47351;53.326;-6.298;2023-07-28T04:49:55;99970.48;;;15.45;82.52
61488;BME280;47351;53.326;-6.298;2023-07-28T04:53:04;99972.30;;;15.46;82.46
61488;BME280;47351;53.326;-6.298;2023-07-28T04:56:17;99972.73;;;15.46;82.15
61488;BME280;47351;53.326;-6.298;2023-07-28T04:59:07;99972.86;;;15.45;81.79
61488;BME280;47351;53.326;-6.298;2023-07-28T05:01:58;99978.16;;;15.44;81.41
61488;BME280;47351;53.326;-6.298;2023-07-28T05:04:48;99981.15;;;15.45;81.22
61488;BME280;47351;53.326;-6.298;2023-07-28T05:07:39;99981.23;;;15.47;80.95
61488;BME280;47351;53.326;-6.298;2023-07-28T05:10:32;99986.84;;;15.50;81.02
61488;BME280;47351;53.326;-6.298;2023-07-28T05:13:23;99983.33;;;15.55;80.82
61488;BME280;47351;53.326;-6.298;2023-07-28T05:16:16;99987.27;;;15.60;80.75
61488;BME280;47351;53.326;-6.298;2023-07-28T05:19:39;99984.54;;;15.65;80.36
61488;BME280;47351;53.326;-6.298;2023-07-28T05:22:38;99984.45;;;15.65;80.08
61488;BME280;47351;53.326;-6.298;2023-07-28T05:25:29;99983.46;;;15.63;79.61
61488;BME280;47351;53.326;-6.298;2023-07-28T05:28:26;99985.75;;;15.61;79.45
61488;BME280;47351;53.326;-6.298;2023-07-28T05:31:17;99988.45;;;15.58;79.18
61488;BME280;47351;53.326;-6.298;2023-07-28T05:34:09;99993.38;;;15.52;78.99
61488;BME280;47351;53.326;-6.298;2023-07-28T05:37:01;99995.80;;;15.47;79.01
61488;BME280;47351;53.326;-6.298;2023-07-28T05:39:53;99998.37;;;15.41;79.01
61488;BME280;47351;53.326;-6.298;2023-07-28T05:42:44;99996.66;;;15.38;79.44
61488;BME280;47351;53.326;-6.298;2023-07-28T05:45:34;99987.63;;;15.37;79.86
61488;BME280;47351;53.326;-6.298;2023-07-28T05:48:27;99990.72;;;15.38;79.90
61488;BME280;47351;53.326;-6.298;2023-07-28T05:51:18;99994.96;;;15.40;80.21
61488;BME280;47351;53.326;-6.298;2023-07-28T05:54:08;99984.23;;;15.45;80.45
61488;BME280;47351;53.326;-6.298;2023-07-28T05:56:59;99979.69;;;15.49;80.45
61488;BME280;47351;53.326;-6.298;2023-07-28T05:59:50;99980.23;;;15.51;80.22
61488;BME280;47351;53.326;-6.298;2023-07-28T06:02:40;99980.89;;;15.53;80.05
61488;BME280;47351;53.326;-6.298;2023-07-28T06:05:35;99982.63;;;15.53;79.76
61488;BME280;47351;53.326;-6.298;2023-07-28T06:08:26;99981.80;;;15.53;79.51
61488;BME280;47351;53.326;-6.298;2023-07-28T06:11:17;99979.69;;;15.54;79.48
61488;BME280;47351;53.326;-6.298;2023-07-28T06:14:07;99981.50;;;15.54;79.53
61488;BME280;47351;53.326;-6.298;2023-07-28T06:16:58;99984.63;;;15.55;79.54
61488;BME280;47351;53.326;-6.298;2023-07-28T06:19:52;99977.91;;;15.53;79.18
61488;BME280;47351;53.326;-6.298;2023-07-28T06:22:43;99977.38;;;15.48;78.99
61488;BME280;47351;53.326;-6.298;2023-07-28T06:25:34;99978.03;;;15.48;79.19
61488;BME280;47351;53.326;-6.298;2023-07-28T06:28:28;99979.70;;;15.50;79.02
61488;BME280;47351;53.326;-6.298;2023-07-28T06:31:19;99982.05;;;15.53;78.72
61488;BME280;47351;53.326;-6.298;2023-07-28T06:34:10;99978.94;;;15.57;78.67
61488;BME280;47351;53.326;-6.298;2023-07-28T06:37:00;99977.36;;;15.61;78.46
61488;BME280;47351;53.326;-6.298;2023-07-28T06:43:10;99979.98;;;15.74;78.01
61488;BME280;47351;53.326;-6.298;2023-07-28T06:46:01;99968.39;;;15.84;77.51
61488;BME280;47351;53.326;-6.298;2023-07-28T06:48:56;99965.20;;;15.97;76.95
61488;BME280;47351;53.326;-6.298;2023-07-28T06:51:47;99964.21;;;16.12;76.71
61488;BME280;47351;53.326;-6.298;2023-07-28T06:54:40;99963.68;;;16.24;75.99
61488;BME280;47351;53.326;-6.298;2023-07-28T06:57:30;99962.79;;;16.35;75.28
61488;BME280;47351;53.326;-6.298;2023-07-28T07:00:37;99963.30;;;16.52;74.69
61488;BME280;47351;53.326;-6.298;2023-07-28T07:03:30;99959.33;;;16.75;74.18
61488;BME280;47351;53.326;-6.298;2023-07-28T07:06:20;99957.94;;;16.99;73.15
61488;BME280;47351;53.326;-6.298;2023-07-28T07:09:11;99951.98;;;17.18;72.18
61488;BME280;47351;53.326;-6.298;2023-07-28T07:12:04;99951.60;;;17.35;71.24
61488;BME280;47351;53.326;-6.298;2023-07-28T07:14:55;99947.67;;;17.51;70.78
61488;BME280;47351;53.326;-6.298;2023-07-28T07:17:46;99945.44;;;17.71;70.28
61488;BME280;47351;53.326;-6.298;2023-07-28T07:20:37;99945.21;;;17.89;69.61
61488;BME280;47351;53.326;-6.298;2023-07-28T07:23:28;99944.91;;;17.97;68.45
61488;BME280;47351;53.326;-6.298;2023-07-28T07:26:18;99947.73;;;18.02;67.62
61488;BME280;47351;53.326;-6.298;2023-07-28T07:29:09;99950.09;;;18.07;67.19
61488;BME280;47351;53.326;-6.298;2023-07-28T07:31:59;99952.71;;;18.12;66.88
61488;BME280;47351;53.326;-6.298;2023-07-28T07:34:50;99955.55;;;18.11;66.61
61488;BME280;47351;53.326;-6.298;2023-07-28T07:37:42;99959.27;;;18.12;66.64
61488;BME280;47351;53.326;-6.298;2023-07-28T07:40:32;99957.87;;;18.19;66.56
61488;BME280;47351;53.326;-6.298;2023-07-28T07:43:23;99954.52;;;18.27;65.93
61488;BME280;47351;53.326;-6.298;2023-07-28T07:46:14;99955.52;;;18.34;65.04
61488;BME280;47351;53.326;-6.298;2023-07-28T07:49:05;99952.51;;;18.37;64.46
61488;BME280;47351;53.326;-6.298;2023-07-28T07:51:55;99954.61;;;18.40;64.17
61488;BME280;47351;53.326;-6.298;2023-07-28T07:54:46;99955.73;;;18.44;63.56
61488;BME280;47351;53.326;-6.298;2023-07-28T07:57:36;99958.99;;;18.46;63.18
61488;BME280;47351;53.326;-6.298;2023-07-28T08:00:27;99959.85;;;18.51;62.94
61488;BME280;47351;53.326;-6.298;2023-07-28T08:03:17;99954.94;;;18.54;62.65
61488;BME280;47351;53.326;-6.298;2023-07-28T08:06:08;99951.69;;;18.60;62.32
61488;BME280;47351;53.326;-6.298;2023-07-28T08:09:00;99952.97;;;18.71;61.90
61488;BME280;47351;53.326;-6.298;2023-07-28T08:11:51;99949.77;;;18.82;61.41
61488;BME280;47351;53.326;-6.298;2023-07-28T08:14:42;99951.38;;;18.90;60.84
61488;BME280;47351;53.326;-6.298;2023-07-28T08:17:32;99957.07;;;18.94;60.58
61488;BME280;47351;53.326;-6.298;2023-07-28T08:20:24;99957.33;;;19.02;60.44
61488;BME280;47351;53.326;-6.298;2023-07-28T08:23:14;99954.02;;;19.10;60.44
61488;BME280;47351;53.326;-6.298;2023-07-28T08:26:05;99960.66;;;19.18;60.35
61488;BME280;47351;53.326;-6.298;2023-07-28T08:28:55;99956.49;;;19.18;60.05
61488;BME280;47351;53.326;-6.298;2023-07-28T08:31:46;99957.06;;;19.11;60.26
61488;BME280;47351;53.326;-6.298;2023-07-28T08:34:37;99952.07;;;19.07;59.96
61488;BME280;47351;53.326;-6.298;2023-07-28T08:37:27;99945.45;;;19.58;59.61
61488;BME280;47351;53.326;-6.298;2023-07-28T08:40:18;99941.66;;;20.45;58.35
61488;BME280;47351;53.326;-6.298;2023-07-28T08:43:09;99944.38;;;20.88;56.68
61488;BME280;47351;53.326;-6.298;2023-07-28T08:46:00;99945.10;;;21.46;55.46
61488;BME280;47351;53.326;-6.298;2023-07-28T08:48:50;99945.19;;;21.53;55.48
61488;BME280;47351;53.326;-6.298;2023-07-28T08:51:42;99937.98;;;21.49;55.63
61488;BME280;47351;53.326;-6.298;2023-07-28T08:54:32;99939.42;;;21.35;55.29
61488;BME280;47351;53.326;-6.298;2023-07-28T08:57:23;99933.73;;;21.20;55.31
61488;BME280;47351;53.326;-6.298;2023-07-28T09:00:14;99941.55;;;21.44;55.15
61488;BME280;47351;53.326;-6.298;2023-07-28T09:03:07;99942.69;;;21.62;54.64
61488;BME280;47351;53.326;-6.298;2023-07-28T09:06:00;99936.04;;;21.65;54.15
61488;BME280;47351;53.326;-6.298;2023-07-28T09:08:51;99938.20;;;21.57;53.98
61488;BME280;47351;53.326;-6.298;2023-07-28T09:11:45;99939.25;;;21.69;54.10
61488;BME280;47351;53.326;-6.298;2023-07-28T09:14:36;99938.04;;;21.80;53.87
61488;BME280;47351;53.326;-6.298;2023-07-28T09:17:27;99933.05;;;22.36;52.75
61488;BME280;47351;53.326;-6.298;2023-07-28T09:20:22;99935.54;;;22.66;52.67
61488;BME280;47351;53.326;-6.298;2023-07-28T09:23:13;99937.21;;;22.59;52.15
61488;BME280;47351;53.326;-6.298;2023-07-28T09:26:04;99928.48;;;22.27;52.17
61488;BME280;47351;53.326;-6.298;2023-07-28T09:28:56;99933.08;;;21.95;53.13
61488;BME280;47351;53.326;-6.298;2023-07-28T09:31:47;99929.30;;;21.78;53.34
61488;BME280;47351;53.326;-6.298;2023-07-28T09:34:38;99928.61;;;21.67;53.09
61488;BME280;47351;53.326;-6.298;2023-07-28T09:37:29;99931.36;;;21.54;53.47
61488;BME280;47351;53.326;-6.298;2023-07-28T09:40:20;99940.20;;;21.32;53.97
61488;BME280;47351;53.326;-6.298;2023-07-28T09:43:11;99934.78;;;21.08;54.65
61488;BME280;47351;53.326;-6.298;2023-07-28T09:46:03;99931.48;;;20.81;55.06
61488;BME280;47351;53.326;-6.298;2023-07-28T09:48:56;99935.80;;;20.54;55.79
61488;BME280;47351;53.326;-6.298;2023-07-28T09:51:47;99933.50;;;20.40;56.51
61488;BME280;47351;53.326;-6.298;2023-07-28T09:54:39;99935.15;;;20.35;56.66
61488;BME280;47351;53.326;-6.298;2023-07-28T09:57:30;99930.85;;;20.49;56.84
61488;BME280;47351;53.326;-6.298;2023-07-28T10:00:23;99930.05;;;20.69;56.92
61488;BME280;47351;53.326;-6.298;2023-07-28T10:03:14;99927.19;;;21.07;56.66
61488;BME280;47351;53.326;-6.298;2023-07-28T10:06:05;99925.76;;;21.41;56.74
61488;BME280;47351;53.326;-6.298;2023-07-28T10:08:56;99922.43;;;21.66;55.95
61488;BME280;47351;53.326;-6.298;2023-07-28T10:11:47;99913.95;;;22.12;55.44
61488;BME280;47351;53.326;-6.298;2023-07-28T10:14:38;99904.81;;;23.94;53.44
61488;BME280;47351;53.326;-6.298;2023-07-28T10:17:32;99895.61;;;25.03;50.96
61488;BME280;47351;53.326;-6.298;2023-07-28T10:20:30;99897.55;;;25.17;49.84
61488;BME280;47351;53.326;-6.298;2023-07-28T10:23:21;99887.93;;;26.36;47.50
61488;BME280;47351;53.326;-6.298;2023-07-28T10:26:12;99879.32;;;27.99;45.05
61488;BME280;47351;53.326;-6.298;2023-07-28T10:29:09;99875.95;;;28.39;44.28
61488;BME280;47351;53.326;-6.298;2023-07-28T10:31:59;99870.20;;;29.96;41.54
61488;BME280;47351;53.326;-6.298;2023-07-28T10:34:59;99867.33;;;31.56;39.61
61488;BME280;47351;53.326;-6.298;2023-07-28T10:37:51;99863.67;;;32.86;37.14
61488;BME280;47351;53.326;-6.298;2023-07-28T10:40:45;99863.20;;;33.88;35.49
61488;BME280;47351;53.326;-6.298;2023-07-28T10:43:35;99860.14;;;34.59;34.26
61488;BME280;47351;53.326;-6.298;2023-07-28T10:46:26;99857.33;;;35.10;32.68
61488;BME280;47351;53.326;-6.298;2023-07-28T10:49:17;99847.52;;;35.48;31.81
61488;BME280;47351;53.326;-6.298;2023-07-28T10:52:08;99840.70;;;36.05;31.25
61488;BME280;47351;53.326;-6.298;2023-07-28T10:54:59;99836.57;;;36.71;29.84
61488;BME280;47351;53.326;-6.298;2023-07-28T10:57:50;99834.88;;;37.23;29.27
61488;BME280;47351;53.326;-6.298;2023-07-28T11:00:42;99829.15;;;37.67;28.22
61488;BME280;47351;53.326;-6.298;2023-07-28T11:03:33;99828.03;;;38.15;28.15
61488;BME280;47351;53.326;-6.298;2023-07-28T11:06:23;99826.13;;;38.71;26.80
61488;BME280;47351;53.326;-6.298;2023-07-28T11:09:16;99822.35;;;38.94;25.84
61488;BME280;47351;53.326;-6.298;2023-07-28T11:12:09;99820.15;;;39.14;25.43
61488;BME280;47351;53.326;-6.298;2023-07-28T11:15:00;99816.71;;;39.06;25.41
61488;BME280;47351;53.326;-6.298;2023-07-28T11:17:51;99814.83;;;37.69;26.29
61488;BME280;47351;53.326;-6.298;2023-07-28T11:20:41;99813.84;;;38.13;25.84
61488;BME280;47351;53.326;-6.298;2023-07-28T11:23:33;99810.66;;;38.13;24.82
61488;BME280;47351;53.326;-6.298;2023-07-28T11:26:24;99803.63;;;37.61;25.56
61488;BME280;47351;53.326;-6.298;2023-07-28T11:29:15;99810.09;;;36.73;25.72
61488;BME280;47351;53.326;-6.298;2023-07-28T11:32:06;99807.88;;;34.71;26.77
61488;BME280;47351;53.326;-6.298;2023-07-28T11:35:03;99804.28;;;33.61;27.47
61488;BME280;47351;53.326;-6.298;2023-07-28T11:37:54;99792.73;;;33.69;28.36
61488;BME280;47351;53.326;-6.298;2023-07-28T11:40:46;99792.33;;;33.05;28.68
61488;BME280;47351;53.326;-6.298;2023-07-28T11:43:36;99791.38;;;31.77;29.35
61488;BME280;47351;53.326;-6.298;2023-07-28T11:46:33;99790.50;;;30.58;30.61
61488;BME280;47351;53.326;-6.298;2023-07-28T11:49:24;99796.08;;;29.92;31.42
61488;BME280;47351;53.326;-6.298;2023-07-28T11:52:16;99795.64;;;29.70;32.22
61488;BME280;47351;53.326;-6.298;2023-07-28T11:55:06;99796.30;;;30.38;31.77
61488;BME280;47351;53.326;-6.298;2023-07-28T11:57:57;99800.73;;;30.31;30.74
61488;BME280;47351;53.326;-6.298;2023-07-28T12:00:50;99800.83;;;29.75;31.32
61488;BME280;47351;53.326;-6.298;2023-07-28T12:03:41;99795.00;;;29.47;32.09
61488;BME280;47351;53.326;-6.298;2023-07-28T12:06:31;99795.41;;;29.51;32.59
61488;BME280;47351;53.326;-6.298;2023-07-28T12:09:51;99797.02;;;29.12;33.09
61488;BME280;47351;53.326;-6.298;2023-07-28T12:12:46;99796.13;;;28.78;33.57
61488;BME280;47351;53.326;-6.298;2023-07-28T12:15:41;99798.39;;;28.28;34.36
61488;BME280;47351;53.326;-6.298;2023-07-28T12:18:34;99801.79;;;27.78;34.90
61488;BME280;47351;53.326;-6.298;2023-07-28T12:21:27;99797.77;;;28.59;34.39
61488;BME280;47351;53.326;-6.298;2023-07-28T12:24:19;99795.31;;;30.27;32.69
61488;BME280;47351;53.326;-6.298;2023-07-28T12:27:11;99793.49;;;30.81;31.75
61488;BME280;47351;53.326;-6.298;2023-07-28T12:30:02;99780.58;;;32.01;30.50
61488;BME280;47351;53.326;-6.298;2023-07-28T12:32:54;99783.34;;;32.03;30.34
61488;BME280;47351;53.326;-6.298;2023-07-28T12:35:47;99784.65;;;32.52;30.19
61488;BME280;47351;53.326;-6.298;2023-07-28T12:38:39;99785.09;;;31.76;30.52
61488;BME280;47351;53.326;-6.298;2023-07-28T12:41:30;99785.64;;;30.54;31.60
61488;BME280;47351;53.326;-6.298;2023-07-28T12:44:24;99784.26;;;29.42;32.75
61488;BME280;47351;53.326;-6.298;2023-07-28T12:47:17;99785.39;;;28.74;33.81
61488;BME280;47351;53.326;-6.298;2023-07-28T12:50:08;99788.73;;;28.22;34.53
61488;BME280;47351;53.326;-6.298;2023-07-28T12:53:02;99780.55;;;28.31;34.49
61488;BME280;47351;53.326;-6.298;2023-07-28T12:56:03;99780.27;;;29.64;33.58
61488;BME280;47351;53.326;-6.298;2023-07-28T12:58:54;99776.55;;;29.91;33.24
61488;BME280;47351;53.326;-6.298;2023-07-28T13:01:47;99775.79;;;29.96;33.64
61488;BME280;47351;53.326;-6.298;2023-07-28T13:04:38;99776.59;;;29.52;34.08
61488;BME280;47351;53.326;-6.298;2023-07-28T13:07:28;99772.33;;;29.36;34.48
61488;BME280;47351;53.326;-6.298;2023-07-28T13:10:21;99776.23;;;29.34;34.52
61488;BME280;47351;53.326;-6.298;2023-07-28T13:13:15;99777.28;;;29.00;34.70
61488;BME280;47351;53.326;-6.298;2023-07-28T13:16:05;99781.48;;;28.15;35.37
61488;BME280;47351;53.326;-6.298;2023-07-28T13:19:00;99772.91;;;27.57;36.01
61488;BME280;47351;53.326;-6.298;2023-07-28T13:21:51;99767.98;;;27.85;35.80
61488;BME280;47351;53.326;-6.298;2023-07-28T13:24:41;99764.35;;;28.76;35.49
61488;BME280;47351;53.326;-6.298;2023-07-28T13:27:32;99761.27;;;29.34;34.75
61488;BME280;47351;53.326;-6.298;2023-07-28T13:30:23;99754.01;;;29.86;34.15
61488;BME280;47351;53.326;-6.298;2023-07-28T13:33:17;99745.05;;;30.76;32.88
61488;BME280;47351;53.326;-6.298;2023-07-28T13:36:08;99749.65;;;31.52;31.87
61488;BME280;47351;53.326;-6.298;2023-07-28T13:38:58;99748.26;;;32.25;30.44
61488;BME280;47351;53.326;-6.298;2023-07-28T13:41:49;99756.20;;;31.77;30.88
61488;BME280;47351;53.326;-6.298;2023-07-28T13:44:39;99763.77;;;30.25;32.45
61488;BME280;47351;53.326;-6.298;2023-07-28T13:47:45;99762.47;;;28.79;34.37
61488;BME280;47351;53.326;-6.298;2023-07-28T13:50:35;99763.90;;;27.73;35.65
61488;BME280;47351;53.326;-6.298;2023-07-28T13:53:26;99762.91;;;27.21;36.28
61488;BME280;47351;53.326;-6.298;2023-07-28T13:56:20;99757.64;;;27.12;36.75
61488;BME280;47351;53.326;-6.298;2023-07-28T13:59:10;99753.42;;;27.04;36.53
61488;BME280;47351;53.326;-6.298;2023-07-28T14:02:01;99742.81;;;27.83;35.88
61488;BME280;47351;53.326;-6.298;2023-07-28T14:04:52;99743.94;;;28.46;35.33
61488;BME280;47351;53.326;-6.298;2023-07-28T14:07:42;99743.73;;;28.53;35.32
61488;BME280;47351;53.326;-6.298;2023-07-28T14:10:37;99747.29;;;28.71;34.48
61488;BME280;47351;53.326;-6.298;2023-07-28T14:13:28;99743.45;;;28.60;35.17
61488;BME280;47351;53.326;-6.298;2023-07-28T14:16:18;99749.00;;;28.43;35.52
61488;BME280;47351;53.326;-6.298;2023-07-28T14:19:09;99746.92;;;28.02;35.67
61488;BME280;47351;53.326;-6.298;2023-07-28T14:21:59;99741.59;;;27.40;36.43
61488;BME280;47351;53.326;-6.298;2023-07-28T14:24:50;99736.62;;;26.80;37.12
61488;BME280;47351;53.326;-6.298;2023-07-28T14:27:40;99742.45;;;26.45;37.79
61488;BME280;47351;53.326;-6.298;2023-07-28T14:30:31;99738.33;;;26.17;38.64
61488;BME280;47351;53.326;-6.298;2023-07-28T14:33:21;99734.59;;;25.79;39.43
61488;BME280;47351;53.326;-6.298;2023-07-28T14:36:12;99727.96;;;25.66;40.22
61488;BME280;47351;53.326;-6.298;2023-07-28T14:39:02;99723.14;;;25.77;40.66
61488;BME280;47351;53.326;-6.298;2023-07-28T14:41:53;99721.48;;;26.18;40.50
61488;BME280;47351;53.326;-6.298;2023-07-28T14:44:43;99719.89;;;26.39;39.99
61488;BME280;47351;53.326;-6.298;2023-07-28T14:47:34;99716.73;;;26.42;40.03
61488;BME280;47351;53.326;-6.298;2023-07-28T14:50:24;99712.15;;;26.33;40.33
61488;BME280;47351;53.326;-6.298;2023-07-28T14:53:28;99713.89;;;26.26;40.42
61488;BME280;47351;53.326;-6.298;2023-07-28T14:56:19;99714.05;;;26.05;40.43
61488;BME280;47351;53.326;-6.298;2023-07-28T14:59:13;99707.20;;;25.39;40.88
61488;BME280;47351;53.326;-6.298;2023-07-28T15:02:04;99709.35;;;24.80;42.03
61488;BME280;47351;53.326;-6.298;2023-07-28T15:04:55;99712.31;;;24.40;42.80
61488;BME280;47351;53.326;-6.298;2023-07-28T15:07:45;99715.38;;;24.32;43.50
61488;BME280;47351;53.326;-6.298;2023-07-28T15:10:35;99709.80;;;24.41;43.57